Time;durP1;ratioP1;P1;durP2;ratioP2;P2;SDS_P1;SDS_P2;PMS_P1;PMS_P2;Temp;Humidity;BMP_temperature;BMP_pressure;BME280_temperature;BME280_humidity;BME280_pressure;Samples;Min_cycle;Max_cycle;Signal;HPM_P1;HPM_P2
2021/07/19 00:02:07;;;;;;;8.40;7.90;;;17.50;99.90;;;;;;5073519;28;20174;-66
2021/07/19 00:04:44;;;;;;;8.50;8.00;;;17.40;99.90;;;;;;5073215;28;20202;-66
2021/07/19 00:07:10;;;;;;;7.37;6.87;;;17.40;99.90;;;;;;5073058;28;20170;-66
2021/07/19 00:09:36;;;;;;;8.57;7.80;;;17.40;99.90;;;;;;5072304;28;20176;-66
2021/07/19 00:12:04;;;;;;;7.27;6.67;;;17.30;99.90;;;;;;5073207;28;20174;-66
2021/07/19 00:14:30;;;;;;;8.27;7.37;;;17.30;99.90;;;;;;5073059;28;20269;-65
2021/07/19 00:16:56;;;;;;;7.77;7.17;;;17.30;99.90;;;;;;5073101;28;20280;-66
2021/07/19 00:19:21;;;;;;;8.60;8.00;;;17.20;99.90;;;;;;5073252;28;20304;-66
2021/07/19 00:21:47;;;;;;;8.17;6.83;;;17.20;99.90;;;;;;5073040;28;20285;-66
2021/07/19 00:24:13;;;;;;;7.53;7.00;;;17.20;99.90;;;;;;5072877;28;20182;-66
2021/07/19 00:26:39;;;;;;;7.27;6.87;;;17.10;99.90;;;;;;5072861;28;20253;-66
2021/07/19 00:29:05;;;;;;;7.47;6.97;;;17.10;99.90;;;;;;5073201;28;20249;-66
2021/07/19 00:31:32;;;;;;;8.73;7.93;;;17.10;99.90;;;;;;5073023;28;20182;-66
2021/07/19 00:33:59;;;;;;;8.33;7.73;;;17.10;99.90;;;;;;5072636;28;20201;-66
2021/07/19 00:36:25;;;;;;;9.83;9.03;;;17.00;99.90;;;;;;5072847;28;20190;-66
2021/07/19 00:38:51;;;;;;;9.00;8.10;;;17.00;99.90;;;;;;5072786;28;20189;-65
2021/07/19 00:41:18;;;;;;;8.47;7.87;;;17.00;99.90;;;;;;5072875;28;20249;-66
2021/07/19 00:43:43;;;;;;;10.37;9.57;;;17.00;99.90;;;;;;5072210;28;20575;-65
2021/07/19 00:46:09;;;;;;;8.10;7.60;;;17.00;99.90;;;;;;5072843;28;20166;-66
2021/07/19 00:48:34;;;;;;;9.73;8.83;;;17.00;99.90;;;;;;5072574;28;20193;-66
2021/07/19 00:51:00;;;;;;;8.83;8.03;;;17.10;99.90;;;;;;5072536;28;20623;-66
2021/07/19 00:53:26;;;;;;;8.23;7.63;;;17.00;99.90;;;;;;5072534;28;20197;-66
2021/07/19 00:55:54;;;;;;;8.97;8.27;;;17.10;99.90;;;;;;5072108;28;20237;-66
2021/07/19 00:58:25;;;;;;;8.40;7.80;;;17.00;99.90;;;;;;5072417;28;20174;-66
2021/07/19 01:00:53;;;;;;;8.40;7.70;;;16.90;99.90;;;;;;5072399;28;20170;-66
2021/07/19 01:03:20;;;;;;;8.60;8.07;;;17.00;99.90;;;;;;5071564;28;20171;-65
2021/07/19 01:05:45;;;;;;;9.00;8.17;;;17.00;99.90;;;;;;5071873;28;20178;-66
2021/07/19 01:08:11;;;;;;;9.40;8.20;;;17.00;99.90;;;;;;5072304;28;20315;-66
2021/07/19 01:10:38;;;;;;;8.40;7.67;;;16.90;99.90;;;;;;5072055;28;20253;-66
2021/07/19 01:13:05;;;;;;;7.83;7.23;;;17.00;99.90;;;;;;5072236;28;20171;-66
2021/07/19 01:15:34;;;;;;;10.67;8.03;;;16.90;99.90;;;;;;5071903;28;20196;-66
2021/07/19 01:18:01;;;;;;;9.80;9.07;;;16.90;99.90;;;;;;5069999;28;20690;-65
2021/07/19 01:20:32;;;;;;;9.30;8.50;;;16.90;99.90;;;;;;5071990;28;20174;-66
2021/07/19 01:23:31;;;;;;;8.83;8.23;;;16.90;99.90;;;;;;5072039;28;20181;-66
2021/07/19 01:26:25;;;;;;;9.07;8.37;;;16.90;99.90;;;;;;5071819;28;21602;-66
2021/07/19 01:28:52;;;;;;;8.57;7.83;;;16.90;99.90;;;;;;5072171;28;20181;-66
2021/07/19 01:31:31;;;;;;;9.73;8.87;;;16.80;99.90;;;;;;5071713;28;20188;-66
2021/07/19 01:33:59;;;;;;;9.23;8.47;;;16.80;99.90;;;;;;5071487;28;20197;-66
2021/07/19 01:36:29;;;;;;;9.13;8.30;;;16.80;99.90;;;;;;5071511;28;20198;-66
2021/07/19 01:38:56;;;;;;;9.50;8.60;;;16.80;99.90;;;;;;5071978;28;20249;-65
2021/07/19 01:41:23;;;;;;;9.63;8.73;;;16.70;99.90;;;;;;5071526;28;20170;-66
2021/07/19 01:43:50;;;;;;;9.50;8.60;;;16.70;99.90;;;;;;5071483;28;20251;-65
2021/07/19 01:46:16;;;;;;;10.20;9.17;;;16.70;99.90;;;;;;5071524;28;20174;-66
2021/07/19 01:48:43;;;;;;;10.00;9.23;;;16.60;99.90;;;;;;5071670;28;20209;-66
2021/07/19 01:51:10;;;;;;;9.73;8.83;;;16.60;99.90;;;;;;5070426;28;20616;-65
2021/07/19 01:53:36;;;;;;;10.13;9.00;;;16.60;99.90;;;;;;5071528;28;20194;-66
2021/07/19 01:56:03;;;;;;;10.37;9.40;;;16.60;99.90;;;;;;5071209;28;20637;-67
2021/07/19 01:58:30;;;;;;;11.03;10.00;;;16.60;99.90;;;;;;5071583;28;20175;-66
2021/07/19 02:00:56;;;;;;;9.93;8.43;;;16.50;99.90;;;;;;5071257;28;20216;-66
2021/07/19 02:03:23;;;;;;;9.63;8.97;;;16.50;99.90;;;;;;5071511;28;20225;-66
2021/07/19 02:05:51;;;;;;;9.37;8.67;;;16.40;99.90;;;;;;5071077;28;20190;-65
2021/07/19 02:08:18;;;;;;;10.63;9.23;;;16.40;99.90;;;;;;5071503;28;20180;-66
2021/07/19 02:10:55;;;;;;;9.40;8.63;;;16.40;99.90;;;;;;5071575;28;20171;-69
2021/07/19 02:13:23;;;;;;;10.33;9.23;;;16.30;99.90;;;;;;5072628;28;20189;-68
2021/07/19 02:15:52;;;;;;;9.87;8.90;;;16.30;99.90;;;;;;5072156;28;20177;-72
2021/07/19 02:18:22;;;;;;;11.17;10.27;;;16.30;99.90;;;;;;5072194;28;20178;-71
2021/07/19 02:20:48;;;;;;;10.13;9.23;;;16.30;99.90;;;;;;5072196;28;20174;-70
2021/07/19 02:23:16;;;;;;;9.77;8.70;;;16.30;99.90;;;;;;5052393;28;20193;-69
2021/07/19 02:25:42;;;;;;;11.50;9.67;;;16.30;99.90;;;;;;5051883;28;20170;-71
2021/07/19 02:28:10;;;;;;;9.60;8.70;;;16.30;99.90;;;;;;5071884;28;20182;-71
2021/07/19 02:30:37;;;;;;;10.77;9.77;;;16.20;99.90;;;;;;5076528;28;20177;-70
2021/07/19 02:33:03;;;;;;;9.77;8.97;;;16.20;99.90;;;;;;5076564;28;20585;-69
2021/07/19 02:35:31;;;;;;;10.80;9.70;;;16.20;99.90;;;;;;5076099;28;20227;-69
2021/07/19 02:38:01;;;;;;;9.30;8.50;;;16.10;99.90;;;;;;5076166;28;20206;-71
2021/07/19 02:40:29;;;;;;;11.93;9.23;;;16.10;99.90;;;;;;5076586;28;20639;-70
2021/07/19 02:42:58;;;;;;;9.17;8.43;;;16.00;99.90;;;;;;5076112;28;20675;-69
2021/07/19 02:45:25;;;;;;;9.77;9.07;;;16.10;99.90;;;;;;5076193;28;20213;-71
2021/07/19 02:47:51;;;;;;;10.47;9.57;;;16.00;99.90;;;;;;5076200;28;20188;-71
2021/07/19 02:50:19;;;;;;;10.67;9.43;;;16.10;99.90;;;;;;5074774;28;20261;-70
2021/07/19 02:52:45;;;;;;;11.33;9.40;;;16.10;99.90;;;;;;5076005;28;20260;-68
2021/07/19 02:55:14;;;;;;;9.77;8.77;;;16.10;99.90;;;;;;5075065;28;20201;-71
2021/07/19 02:57:40;;;;;;;10.63;9.63;;;16.00;99.90;;;;;;5076035;28;20289;-69
2021/07/19 03:00:12;;;;;;;9.10;8.40;;;16.00;99.90;;;;;;5075682;28;20649;-69
2021/07/19 03:02:46;;;;;;;12.93;9.50;;;16.00;99.90;;;;;;5075848;28;20643;-69
2021/07/19 03:05:13;;;;;;;9.37;8.50;;;16.00;99.90;;;;;;5075535;28;20686;-68
2021/07/19 03:07:40;;;;;;;9.27;8.47;;;15.90;99.90;;;;;;5076031;28;20174;-69
2021/07/19 03:10:09;;;;;;;9.33;8.43;;;15.90;99.90;;;;;;5075671;28;20213;-69
2021/07/19 03:12:39;;;;;;;9.70;8.70;;;15.80;99.90;;;;;;5075572;28;20185;-71
2021/07/19 03:15:07;;;;;;;9.37;8.67;;;15.80;99.90;;;;;;5075308;28;20277;-69
2021/07/19 03:17:36;;;;;;;10.43;9.33;;;15.70;99.90;;;;;;5075507;28;20680;-68
2021/07/19 03:20:03;;;;;;;10.83;9.27;;;15.70;99.90;;;;;;5075658;28;20174;-71
2021/07/19 03:22:30;;;;;;;10.40;9.40;;;15.70;99.90;;;;;;5055687;28;20182;-69
2021/07/19 03:24:59;;;;;;;10.97;9.90;;;15.60;99.90;;;;;;5055544;28;20193;-70
2021/07/19 03:27:26;;;;;;;10.27;9.17;;;15.60;99.90;;;;;;5074679;28;20655;-69
2021/07/19 03:29:53;;;;;;;10.10;9.10;;;15.60;99.90;;;;;;5075776;28;20182;-69
2021/07/19 03:32:20;;;;;;;10.27;9.37;;;15.50;99.90;;;;;;5075478;28;20178;-68
2021/07/19 03:34:46;;;;;;;10.37;9.37;;;15.50;99.90;;;;;;5075106;28;20190;-68
2021/07/19 03:37:15;;;;;;;10.23;9.30;;;15.50;99.90;;;;;;5075526;28;20276;-71
2021/07/19 03:39:42;;;;;;;10.23;9.23;;;15.40;99.90;;;;;;5074943;28;20200;-71
2021/07/19 03:42:11;;;;;;;11.37;10.07;;;15.40;99.90;;;;;;5074728;28;20185;-71
2021/07/19 03:44:37;;;;;;;11.43;10.07;;;15.40;99.90;;;;;;5074867;28;20548;-71
2021/07/19 03:47:03;;;;;;;12.63;11.33;;;15.40;99.90;;;;;;5074996;28;20189;-72
2021/07/19 03:49:31;;;;;;;11.87;10.57;;;15.40;99.90;;;;;;5075133;28;20174;-67
2021/07/19 03:51:57;;;;;;;12.97;11.63;;;15.40;99.90;;;;;;5074290;28;20608;-70
2021/07/19 03:54:23;;;;;;;11.60;10.50;;;15.40;99.90;;;;;;5074489;28;20269;-66
2021/07/19 03:56:49;;;;;;;10.50;9.60;;;15.40;99.90;;;;;;5073449;28;20562;-66
2021/07/19 03:59:19;;;;;;;10.97;9.87;;;15.40;99.90;;;;;;5073789;28;20220;-66
2021/07/19 04:01:47;;;;;;;11.13;10.13;;;15.50;99.90;;;;;;5073372;28;20178;-65
2021/07/19 04:04:18;;;;;;;10.73;9.73;;;15.60;99.90;;;;;;5073282;28;20562;-66
2021/07/19 04:06:44;;;;;;;13.10;10.33;;;15.60;99.90;;;;;;5073314;28;20184;-66
2021/07/19 04:09:10;;;;;;;11.07;9.90;;;15.70;99.90;;;;;;5073558;28;20583;-66
2021/07/19 04:11:37;;;;;;;11.53;9.23;;;15.60;99.90;;;;;;5073294;28;20235;-66
2021/07/19 04:14:03;;;;;;;12.17;10.10;;;15.70;99.90;;;;;;5073228;28;20186;-66
2021/07/19 04:16:29;;;;;;;12.10;10.00;;;15.80;99.90;;;;;;5072946;28;20202;-66
2021/07/19 04:18:55;;;;;;;10.53;9.43;;;15.80;99.90;;;;;;5073527;28;20528;-65
2021/07/19 04:21:21;;;;;;;11.97;9.40;;;15.80;99.90;;;;;;5073204;28;20273;-66
2021/07/19 04:23:49;;;;;;;10.03;9.13;;;15.90;99.90;;;;;;5073077;28;20190;-66
2021/07/19 04:26:16;;;;;;;10.20;9.40;;;15.90;99.90;;;;;;5072952;28;20282;-65
2021/07/19 04:28:42;;;;;;;10.83;9.73;;;16.00;99.90;;;;;;5073230;28;20544;-66
2021/07/19 04:31:08;;;;;;;10.87;9.67;;;16.10;99.90;;;;;;5073283;28;20197;-65
2021/07/19 04:33:34;;;;;;;10.43;9.50;;;16.20;99.90;;;;;;5072618;28;20205;-65
2021/07/19 04:36:00;;;;;;;10.90;9.47;;;16.30;99.90;;;;;;5072934;28;20202;-66
2021/07/19 04:38:26;;;;;;;10.33;9.53;;;16.30;99.90;;;;;;5072892;28;20203;-65
2021/07/19 04:40:57;;;;;;;10.03;9.13;;;16.30;99.90;;;;;;5073031;28;20549;-66
2021/07/19 04:43:24;;;;;;;10.67;9.60;;;16.40;99.90;;;;;;5071313;28;20213;-66
2021/07/19 04:45:50;;;;;;;12.00;10.67;;;16.50;99.90;;;;;;5072611;28;20169;-66
2021/07/19 04:48:16;;;;;;;10.10;9.30;;;16.60;99.90;;;;;;5072576;28;20182;-66
2021/07/19 04:50:44;;;;;;;10.27;9.27;;;16.70;99.90;;;;;;5071524;28;20543;-66
2021/07/19 04:53:10;;;;;;;10.53;9.60;;;16.70;99.90;;;;;;5072721;28;20181;-66
2021/07/19 04:55:38;;;;;;;10.17;9.17;;;16.70;99.90;;;;;;5072154;28;20678;-65
2021/07/19 04:58:06;;;;;;;9.80;8.90;;;16.80;99.90;;;;;;5072598;28;20293;-66
2021/07/19 05:00:33;;;;;;;11.00;9.30;;;17.00;99.90;;;;;;5072342;28;20178;-66
2021/07/19 05:03:01;;;;;;;11.77;8.57;;;17.10;99.90;;;;;;5072407;28;20659;-66
2021/07/19 05:05:27;;;;;;;10.50;9.50;;;17.10;99.90;;;;;;5072006;28;20643;-66
2021/07/19 05:07:55;;;;;;;11.47;9.73;;;17.20;99.90;;;;;;5072488;28;20706;-66
2021/07/19 05:10:23;;;;;;;9.53;8.83;;;17.30;99.90;;;;;;5072138;28;20185;-66
2021/07/19 05:12:52;;;;;;;9.47;8.67;;;17.30;99.90;;;;;;5072495;28;20202;-66
2021/07/19 05:15:18;;;;;;;10.83;8.63;;;17.50;99.90;;;;;;5071764;28;20609;-66
2021/07/19 05:17:45;;;;;;;9.13;8.33;;;17.70;99.90;;;;;;5072295;28;20709;-66
2021/07/19 05:20:12;;;;;;;10.27;9.23;;;17.70;99.90;;;;;;5072074;28;20208;-66
2021/07/19 05:22:38;;;;;;;10.83;9.07;;;17.80;99.90;;;;;;5072111;28;20170;-66
2021/07/19 05:25:04;;;;;;;9.30;8.50;;;17.90;99.90;;;;;;5070436;28;20194;-65
2021/07/19 05:27:32;;;;;;;9.73;8.83;;;18.00;99.90;;;;;;5070797;28;20190;-66
2021/07/19 05:29:58;;;;;;;9.20;8.40;;;18.10;99.90;;;;;;5071823;28;20268;-66
2021/07/19 05:32:23;;;;;;;10.80;8.50;;;18.20;99.90;;;;;;5071787;28;20261;-65
2021/07/19 05:34:49;;;;;;;9.40;8.50;;;18.20;99.90;;;;;;5071543;28;20194;-67
2021/07/19 05:37:14;;;;;;;12.80;8.67;;;18.30;99.90;;;;;;5071992;28;20335;-66
2021/07/19 05:39:40;;;;;;;8.80;7.90;;;18.40;99.90;;;;;;5071928;28;20170;-66
2021/07/19 05:42:06;;;;;;;9.07;8.20;;;18.50;99.90;;;;;;5070620;28;20265;-65
2021/07/19 05:44:31;;;;;;;9.00;8.17;;;18.70;99.90;;;;;;5071318;28;20618;-66
2021/07/19 05:47:00;;;;;;;9.40;8.63;;;18.80;99.90;;;;;;5071739;28;20192;-66
2021/07/19 05:49:26;;;;;;;8.80;8.20;;;18.90;99.90;;;;;;5071855;28;20576;-66
2021/07/19 05:51:51;;;;;;;8.83;8.03;;;18.90;99.90;;;;;;5071544;28;20263;-66
2021/07/19 05:54:17;;;;;;;10.33;8.23;;;19.00;99.90;;;;;;5071396;28;20586;-66
2021/07/19 05:56:43;;;;;;;9.53;8.83;;;19.10;99.90;;;;;;5071408;28;20209;-66
2021/07/19 05:59:09;;;;;;;10.20;9.20;;;19.20;99.90;;;;;;5071714;28;20178;-66
2021/07/19 06:01:35;;;;;;;9.77;9.03;;;19.30;99.90;;;;;;5069821;28;20174;-66
2021/07/19 06:04:01;;;;;;;8.70;8.00;;;19.40;99.90;;;;;;5070905;28;20568;-66
2021/07/19 06:06:27;;;;;;;8.77;7.93;;;19.50;99.90;;;;;;5071238;28;20193;-65
2021/07/19 06:08:53;;;;;;;10.30;9.30;;;19.50;99.90;;;;;;5071581;28;20170;-66
2021/07/19 06:11:18;;;;;;;10.30;9.40;;;19.50;99.90;;;;;;5071083;28;20193;-66
2021/07/19 06:13:44;;;;;;;10.60;9.60;;;19.50;99.90;;;;;;5071044;28;20543;-66
2021/07/19 06:16:10;;;;;;;10.18;9.27;;;19.60;99.90;;;;;;5071094;28;20202;-66
2021/07/19 06:18:35;;;;;;;10.63;9.63;;;19.90;99.90;;;;;;5071538;28;20188;-66
2021/07/19 06:21:01;;;;;;;10.60;9.73;;;19.90;99.90;;;;;;5071203;28;20190;-66
2021/07/19 06:23:27;;;;;;;9.17;8.27;;;20.00;99.90;;;;;;5071290;28;20189;-66
2021/07/19 06:25:52;;;;;;;10.27;9.37;;;20.00;99.90;;;;;;5070924;28;20178;-66
2021/07/19 06:28:18;;;;;;;9.73;8.73;;;20.10;99.90;;;;;;5071278;28;20170;-66
2021/07/19 06:30:44;;;;;;;10.20;9.32;;;20.20;99.90;;;;;;5071087;28;20609;-66
2021/07/19 06:33:09;;;;;;;9.75;8.82;;;20.50;99.90;;;;;;5051248;28;20640;-66
2021/07/19 06:35:35;;;;;;;9.23;8.43;;;20.60;99.90;;;;;;5050922;28;20194;-66
2021/07/19 06:38:01;;;;;;;10.02;9.20;;;20.70;99.90;;;;;;5070717;28;20259;-66
2021/07/19 06:40:26;;;;;;;11.52;8.85;;;20.70;99.90;;;;;;5071298;28;20185;-66
2021/07/19 06:42:52;;;;;;;9.70;8.88;;;20.80;99.90;;;;;;5071078;28;20185;-66
2021/07/19 06:45:18;;;;;;;9.68;8.73;;;20.80;99.90;;;;;;5069408;28;20566;-66
2021/07/19 06:47:44;;;;;;;10.38;9.55;;;20.80;99.90;;;;;;5071097;28;20186;-66
2021/07/19 06:50:12;;;;;;;10.73;9.68;;;20.90;99.90;;;;;;5070931;28;20183;-66
2021/07/19 06:52:39;;;;;;;11.38;10.25;;;21.00;99.90;;;;;;5071239;28;20212;-66
2021/07/19 06:55:06;;;;;;;10.13;9.23;;;21.00;99.90;;;;;;5070622;28;20206;-66
2021/07/19 06:57:32;;;;;;;9.40;8.60;;;21.10;99.90;;;;;;5070950;28;20690;-66
2021/07/19 06:59:57;;;;;;;9.18;8.38;;;21.20;99.90;;;;;;5070819;28;20178;-65
2021/07/19 07:02:23;;;;;;;10.70;9.43;;;21.20;99.90;;;;;;5070885;28;20663;-65
2021/07/19 07:04:48;;;;;;;9.88;8.98;;;21.00;99.90;;;;;;5069653;28;20269;-65
2021/07/19 07:07:14;;;;;;;11.40;10.50;;;20.80;99.90;;;;;;5071027;28;20544;-65
2021/07/19 07:09:40;;;;;;;11.95;9.93;;;20.70;99.90;;;;;;5070716;28;20174;-65
2021/07/19 07:12:06;;;;;;;10.18;9.27;;;20.70;99.90;;;;;;5070804;28;20644;-65
2021/07/19 07:14:31;;;;;;;9.65;8.85;;;20.60;99.90;;;;;;5070475;28;20206;-66
2021/07/19 07:16:57;;;;;;;11.45;10.50;;;20.60;99.90;;;;;;5073644;28;20671;-66
2021/07/19 07:19:23;;;;;;;12.43;9.50;;;20.70;99.90;;;;;;5073121;28;20178;-66
2021/07/19 07:21:49;;;;;;;10.83;9.57;;;20.70;99.90;;;;;;5074375;28;20620;-66
2021/07/19 07:24:14;;;;;;;10.80;9.68;;;20.60;99.90;;;;;;5074003;28;20198;-66
2021/07/19 07:26:40;;;;;;;11.48;10.50;;;20.70;99.90;;;;;;5074063;28;20186;-66
2021/07/19 07:29:05;;;;;;;10.18;9.27;;;20.80;99.90;;;;;;5074214;28;20253;-66
2021/07/19 07:31:31;;;;;;;10.57;9.50;;;21.00;99.90;;;;;;5074033;28;20194;-66
2021/07/19 07:33:59;;;;;;;11.20;9.75;;;21.00;99.90;;;;;;5073878;28;20222;-66
2021/07/19 07:36:26;;;;;;;10.65;9.55;;;21.20;99.90;;;;;;5072575;28;20247;-65
2021/07/19 07:38:53;;;;;;;10.48;8.85;;;21.40;99.90;;;;;;5074061;28;20181;-66
2021/07/19 07:41:20;;;;;;;10.40;9.30;;;21.50;99.90;;;;;;5073841;28;20213;-66
2021/07/19 07:43:46;;;;;;;10.27;9.27;;;21.50;99.90;;;;;;5073469;28;20224;-66
2021/07/19 07:46:12;;;;;;;8.63;7.93;;;21.50;99.90;;;;;;5073785;28;20197;-65
2021/07/19 07:48:41;;;;;;;10.57;9.60;;;21.40;99.90;;;;;;5073245;28;20189;-66
2021/07/19 07:51:08;;;;;;;9.90;8.85;;;21.30;99.90;;;;;;5072403;28;20652;-65
2021/07/19 07:53:34;;;;;;;10.18;9.18;;;21.20;99.90;;;;;;5072985;28;20221;-66
2021/07/19 07:56:01;;;;;;;9.82;8.93;;;21.10;99.90;;;;;;5073283;28;20205;-66
2021/07/19 07:58:28;;;;;;;10.23;9.10;;;21.20;99.90;;;;;;5073455;28;20178;-65
2021/07/19 08:00:55;;;;;;;10.85;9.77;;;21.20;99.90;;;;;;5073222;28;20281;-66
2021/07/19 08:03:20;;;;;;;10.57;9.55;;;21.10;99.90;;;;;;5073012;28;20178;-65
2021/07/19 08:05:47;;;;;;;10.85;9.75;;;21.20;99.90;;;;;;5072576;28;20178;-66
2021/07/19 08:08:13;;;;;;;9.77;8.88;;;21.30;99.90;;;;;;5073385;28;20178;-66
2021/07/19 08:10:39;;;;;;;10.77;9.77;;;21.30;99.90;;;;;;5073196;28;20189;-66
2021/07/19 08:13:05;;;;;;;10.70;9.60;;;21.40;99.90;;;;;;5073016;28;20244;-65
2021/07/19 08:15:33;;;;;;;10.65;9.65;;;21.30;99.90;;;;;;5073172;28;20178;-65
2021/07/19 08:17:59;;;;;;;12.27;11.07;;;21.20;99.90;;;;;;5072781;28;20208;-65
2021/07/19 08:20:24;;;;;;;11.13;9.23;;;21.10;99.90;;;;;;5073145;28;20186;-66
2021/07/19 08:22:50;;;;;;;11.23;10.13;;;21.30;99.90;;;;;;5072994;28;20643;-66
2021/07/19 08:25:17;;;;;;;10.35;9.43;;;21.50;99.90;;;;;;5072643;28;20194;-66
2021/07/19 08:27:43;;;;;;;10.80;9.70;;;21.60;99.90;;;;;;5072936;28;20277;-66
2021/07/19 08:30:11;;;;;;;11.00;9.95;;;21.70;99.90;;;;;;5072574;28;20210;-66
2021/07/19 08:32:36;;;;;;;10.50;9.23;;;21.80;99.90;;;;;;5073213;28;20202;-66
2021/07/19 08:35:09;;;;;;;10.32;9.30;;;22.00;99.90;;;;;;5071974;28;20709;-66
2021/07/19 08:37:36;;;;;;;10.23;9.23;;;22.00;99.90;;;;;;5073109;28;20687;-66
2021/07/19 08:40:02;;;;;;;9.88;9.00;;;22.10;99.90;;;;;;5072426;28;20177;-65
2021/07/19 08:42:27;;;;;;;10.75;9.65;;;22.40;99.90;;;;;;5072871;28;20190;-65
2021/07/19 08:44:53;;;;;;;11.13;9.70;;;22.40;99.90;;;;;;5072624;28;20209;-65
2021/07/19 08:47:19;;;;;;;10.88;9.70;;;22.40;99.90;;;;;;5072567;28;20251;-65
2021/07/19 08:49:45;;;;;;;11.30;10.27;;;22.40;99.90;;;;;;5071918;28;20197;-66
2021/07/19 08:52:15;;;;;;;11.73;10.52;;;22.60;99.90;;;;;;5072389;28;20267;-66
2021/07/19 08:54:47;;;;;;;12.20;11.00;;;22.80;99.90;;;;;;5072395;28;20194;-66
2021/07/19 08:57:14;;;;;;;10.52;9.63;;;23.00;99.90;;;;;;5072186;28;20689;-66
2021/07/19 08:59:40;;;;;;;13.65;10.63;;;23.20;99.90;;;;;;5072081;28;20257;-66
2021/07/19 09:02:06;;;;;;;11.20;10.13;;;23.00;99.90;;;;;;5071300;28;20169;-65
2021/07/19 09:04:35;;;;;;;13.80;10.13;;;23.10;99.90;;;;;;5071398;28;20206;-65
2021/07/19 09:07:03;;;;;;;14.05;12.48;;;23.20;99.90;;;;;;5072351;28;20178;-66
2021/07/19 09:09:30;;;;;;;12.15;10.85;;;23.40;99.90;;;;;;5072111;28;20185;-66
2021/07/19 09:11:57;;;;;;;12.55;11.25;;;23.30;99.90;;;;;;5072329;28;20245;-65
2021/07/19 09:14:24;;;;;;;12.68;11.40;;;23.20;99.90;;;;;;5071682;28;20205;-66
2021/07/19 09:16:50;;;;;;;12.02;10.70;;;23.00;99.90;;;;;;5072296;28;20288;-65
2021/07/19 09:19:19;;;;;;;14.45;11.00;;;22.80;99.90;;;;;;5072044;28;20655;-66
2021/07/19 09:21:46;;;;;;;14.57;12.05;;;22.80;99.90;;;;;;5070605;28;20549;-66
2021/07/19 09:24:18;;;;;;;13.60;11.82;;;22.70;99.90;;;;;;5069945;28;20186;-65
2021/07/19 09:26:45;;;;;;;12.77;11.48;;;22.70;99.90;;;;;;5071964;28;20182;-65
2021/07/19 09:29:13;;;;;;;13.10;11.70;;;22.90;99.90;;;;;;5071632;28;20178;-66
2021/07/19 09:31:44;;;;;;;12.63;11.27;;;23.00;99.90;;;;;;5072099;28;20255;-66
2021/07/19 09:34:13;;;;;;;12.35;11.15;;;23.00;99.90;;;;;;5071622;28;20190;-66
2021/07/19 09:36:55;;;;;;;13.52;11.73;;;23.10;99.90;;;;;;5071588;28;20202;-66
2021/07/19 09:39:21;;;;;;;13.90;12.60;;;22.90;99.90;;;;;;5071032;28;20732;-65
2021/07/19 09:41:47;;;;;;;13.25;11.95;;;22.90;99.90;;;;;;5071301;28;20176;-65
2021/07/19 09:44:13;;;;;;;12.80;11.50;;;22.70;99.90;;;;;;5050016;28;20692;-66
2021/07/19 09:46:40;;;;;;;14.13;12.68;;;22.50;99.90;;;;;;5071588;28;20194;-65
2021/07/19 09:49:06;;;;;;;13.60;12.20;;;22.50;99.90;;;;;;5071603;28;20181;-65
2021/07/19 09:51:34;;;;;;;14.13;12.63;;;22.50;99.90;;;;;;5069580;28;20616;-65
2021/07/19 09:54:09;;;;;;;12.70;11.45;;;22.70;99.90;;;;;;5071375;28;20190;-66
2021/07/19 09:56:35;;;;;;;13.98;12.48;;;22.90;99.90;;;;;;5071437;28;20258;-66
2021/07/19 09:59:10;;;;;;;14.30;10.13;;;23.20;99.90;;;;;;5069977;28;20235;-65
2021/07/19 10:01:40;;;;;;;11.25;10.15;;;23.20;99.90;;;;;;5070612;28;20178;-66
2021/07/19 10:04:11;;;;;;;11.98;10.65;;;23.00;99.90;;;;;;5070521;28;20675;-65
2021/07/19 10:06:41;;;;;;;11.77;10.55;;;23.00;99.90;;;;;;5071191;28;20280;-65
2021/07/19 10:09:08;;;;;;;13.18;10.45;;;23.20;99.90;;;;;;5071351;28;20245;-66
2021/07/19 10:11:38;;;;;;;13.52;11.30;;;23.20;99.90;;;;;;5071517;28;20257;-66
2021/07/19 10:14:04;;;;;;;12.57;11.02;;;23.20;99.90;;;;;;5070927;28;20202;-66
2021/07/19 10:16:32;;;;;;;13.73;10.88;;;23.20;99.90;;;;;;5071371;28;20198;-66
2021/07/19 10:18:59;;;;;;;13.02;10.50;;;23.30;99.90;;;;;;5071010;28;20209;-66
2021/07/19 10:21:29;;;;;;;11.95;10.70;;;23.40;99.90;;;;;;5071166;28;20178;-66
2021/07/19 10:24:00;;;;;;;12.27;10.98;;;23.50;99.90;;;;;;5070644;28;20197;-66
2021/07/19 10:26:26;;;;;;;11.60;10.40;;;23.50;99.90;;;;;;5071327;28;20181;-66
2021/07/19 10:28:53;;;;;;;15.35;11.43;;;23.40;99.90;;;;;;5070224;28;20224;-66
2021/07/19 10:31:20;;;;;;;12.25;10.95;;;23.40;99.90;;;;;;5069941;28;20798;-66
2021/07/19 10:33:47;;;;;;;13.07;11.77;;;23.30;99.90;;;;;;5070861;28;20205;-65
2021/07/19 10:36:14;;;;;;;13.02;11.65;;;23.10;99.90;;;;;;5071028;28;20187;-66
2021/07/19 10:38:41;;;;;;;13.32;11.88;;;23.20;99.90;;;;;;5070994;28;20197;-66
2021/07/19 10:41:07;;;;;;;12.57;11.27;;;23.20;99.90;;;;;;5069756;28;20174;-66
2021/07/19 10:43:33;;;;;;;15.45;10.98;;;23.50;99.90;;;;;;5064746;28;20210;-66
2021/07/19 10:46:11;;;;;;;14.00;11.27;;;23.70;99.90;;;;;;5050958;28;20182;-66
2021/07/19 10:48:38;;;;;;;12.65;10.73;;;23.80;99.90;;;;;;5064314;28;20526;-65
2021/07/19 10:51:18;;;;;;;11.88;10.68;;;23.80;99.90;;;;;;5073974;28;20181;-66
2021/07/19 10:53:44;;;;;;;11.77;10.57;;;23.80;99.90;;;;;;5074508;28;20193;-65
2021/07/19 10:56:12;;;;;;;11.25;10.13;;;23.90;99.90;;;;;;5074589;28;20178;-65
2021/07/19 10:58:49;;;;;;;11.55;10.35;;;23.90;99.90;;;;;;5073940;28;20178;-66
2021/07/19 11:01:27;;;;;;;12.18;10.85;;;24.10;99.90;;;;;;5074848;28;20170;-66
2021/07/19 11:03:54;;;;;;;12.50;10.63;;;24.40;99.90;;;;;;5074470;28;20303;-65
2021/07/19 11:06:56;;;;;;;11.18;10.00;;;24.50;99.90;;;;;;5074360;28;20181;-65
2021/07/19 11:09:34;;;;;;;12.77;10.60;;;24.50;99.90;;;;;;5066821;28;20264;-66
2021/07/19 11:12:12;;;;;;;11.13;9.98;;;24.40;99.90;;;;;;5074957;28;20557;-65
2021/07/19 11:14:55;;;;;;;13.63;11.32;;;24.10;99.90;;;;;;5054485;28;20202;-66
2021/07/19 11:17:21;;;;;;;12.32;11.02;;;23.90;99.90;;;;;;5057544;28;20249;-65
2021/07/19 11:19:49;;;;;;;11.25;10.13;;;24.00;99.90;;;;;;5074958;28;20202;-65
2021/07/19 11:22:23;;;;;;;12.38;11.05;;;24.10;99.90;;;;;;5074360;28;20185;-65
2021/07/19 11:25:06;;;;;;;11.35;10.25;;;24.30;99.90;;;;;;5074496;28;20243;-65
2021/07/19 11:27:34;;;;;;;12.02;10.77;;;24.80;99.90;;;;;;5065075;28;20189;-65
2021/07/19 11:30:06;;;;;;;11.88;10.38;;;25.10;99.90;;;;;;5074160;28;20209;-65
2021/07/19 11:32:33;;;;;;;11.88;10.60;;;25.20;99.90;;;;;;5074137;28;20508;-65
2021/07/19 11:35:15;;;;;;;14.20;11.32;;;25.10;99.90;;;;;;5073911;28;20194;-65
2021/07/19 11:37:44;;;;;;;11.27;10.18;;;25.00;99.90;;;;;;5073915;28;20198;-65
2021/07/19 11:40:12;;;;;;;12.13;11.02;;;25.10;99.90;;;;;;5073847;28;20213;-65
2021/07/19 11:42:43;;;;;;;12.15;10.95;;;25.10;99.90;;;;;;5074223;28;20169;-65
2021/07/19 11:45:12;;;;;;;11.73;10.52;;;24.70;99.90;;;;;;5073416;28;20212;-65
2021/07/19 11:47:50;;;;;;;12.07;10.95;;;24.40;99.90;;;;;;5074000;28;20727;-65
2021/07/19 11:50:18;;;;;;;14.32;12.52;;;24.00;99.90;;;;;;5073656;28;20170;-65
2021/07/19 11:52:45;;;;;;;14.50;12.02;;;24.20;99.90;;;;;;5073562;28;20178;-65
2021/07/19 11:55:14;;;;;;;13.82;12.32;;;24.40;99.90;;;;;;5072952;28;20205;-65
2021/07/19 11:57:52;;;;;;;15.02;12.30;;;24.50;99.90;;;;;;5073877;28;20238;-65
2021/07/19 12:00:38;;;;;;;14.02;12.52;;;24.50;99.90;;;;;;5068452;28;20201;-65
2021/07/19 12:03:12;;;;;;;14.40;12.90;;;24.50;99.90;;;;;;5073146;28;20522;-65
2021/07/19 12:05:49;;;;;;;15.80;12.73;;;24.40;99.90;;;;;;5073492;28;20177;-65
2021/07/19 12:08:14;;;;;;;15.07;12.95;;;24.70;99.90;;;;;;5073335;28;20542;-65
2021/07/19 12:10:41;;;;;;;16.20;14.13;;;24.60;99.90;;;;;;5073460;28;20175;-65
2021/07/19 12:13:16;;;;;;;15.30;12.90;;;24.80;99.90;;;;;;5073233;28;20708;-66
2021/07/19 12:15:53;;;;;;;13.88;12.38;;;24.80;99.90;;;;;;5073316;28;20191;-65
2021/07/19 12:18:38;;;;;;;16.25;13.20;;;24.80;99.90;;;;;;5072795;28;20212;-65
2021/07/19 12:21:05;;;;;;;16.13;13.98;;;25.00;99.90;;;;;;5073285;28;20162;-65
2021/07/19 12:23:42;;;;;;;14.10;12.63;;;25.30;99.90;;;;;;5073103;28;20200;-65
2021/07/19 12:26:10;;;;;;;14.13;12.70;;;25.30;99.90;;;;;;5072801;28;20523;-65
2021/07/19 12:28:36;;;;;;;13.60;12.20;;;25.60;99.90;;;;;;5073231;28;20158;-65
2021/07/19 12:31:16;;;;;;;13.55;11.70;;;26.40;99.90;;;;;;5072956;28;20535;-66
2021/07/19 12:33:41;;;;;;;13.88;11.85;;;27.30;99.90;;;;;;5072947;28;20216;-66
2021/07/19 12:36:08;;;;;;;14.35;12.85;;;27.70;99.90;;;;;;5072657;28;20245;-65
2021/07/19 12:38:34;;;;;;;14.25;12.85;;;28.00;99.90;;;;;;5073128;28;20261;-65
2021/07/19 12:41:00;;;;;;;16.02;13.68;;;27.70;99.90;;;;;;5072961;28;20249;-65